Aeroporto :
LOGIN :

Iscrizione | Disclaimer

   EN    FR    IT 

 










Sommario :    VFR   VFR Marginale   IFR   IFR Intensivo   IFR Molto Intensivo
Visibilità : 
Base nubi : 
>= 8 km
>= 3000ft
5 / 8 km
1000 / 3000 ft
1500m / 5 km
500 / 1000 ft
800 / 1500m
200 / 500 ft
< 800m
< 200 ft
Simboli :   Temporali  Nebbia  Neve Forte  Precipitazioni Forti  Vento > 20 kt
SIGMETs :   Varie  Temporali  Ghiacco  Turbolenza  Onda orograficha  Ceneri Vulcaniche







- Altitudine del aeroporto : 56 ft
- Codice IATA : BZR
- Carte del aeroporto


LFMU - Beziers / Vias

ULTIMO METAR :
  • 170300Z AUTO 03009KT 4900 BR FEW010 05/05 Q1027 TEMPO BKN010

METARs OBSOLETI :
  • 170230Z AUTO 05010KT 4600 BR FEW010 05/05 Q1027
  • 170200Z AUTO 04006KT 4000 BR SCT010 05/04 Q1028
  • 170130Z AUTO 04007KT 4100 BR FEW010 05/04 Q1028
  • 170100Z AUTO 04006KT 3800 BR NSC 04/04 Q1028
  • 170030Z AUTO 04007KT 4100 BR FEW008 05/04 Q1028

TAF TAF LFMU
Valido dal 17 a 03 ore il 18 a 03 ore UTC


170200Z 1703/1803 04008KT 9999 SCT020
TEMPO 1703/1707 3500 BR
BECMG 1712/1715 12010KT
PROB40
TEMPO 1703/1803 BKN010
ATIS : +33 4 67 90 88 88
Nessun NOTAM noto per questo aeroporto.



MetMap, La meteo Aeronautica in un colpo d'occhio ! - Copyright ORBIFLY Dicembre 2007 - Disclaimer

ORBIFLY MET'MAP TEAM :

Programmazione e sviluppo : Alexandra Zaïnal
Concezione e sviluppo : Baudouin d'Aumeries
Co-Programmazione e sviluppo : Marc-Olivier Méhu
Supporto tecnico e logistico : Manuel Goepfert
Aiuto per la traduzione : Arnaldo La Scala

Contatto : metmap@orbifly.com




FONTI E CREDITI :

   NOAA